sensor_id;sensor_type;location;lat;lon;timestamp;P1;durP1;ratioP1;P2;durP2;ratioP2
5199;SDS011;2619;47.868;11.892;2022-07-18T00:00:31;6.77;;;6.07;;
5199;SDS011;2619;47.868;11.892;2022-07-18T00:02:57;6.57;;;5.97;;
5199;SDS011;2619;47.868;11.892;2022-07-18T00:05:22;8.07;;;7.37;;
5199;SDS011;2619;47.868;11.892;2022-07-18T00:07:48;7.30;;;6.60;;
5199;SDS011;2619;47.868;11.892;2022-07-18T00:10:14;7.33;;;6.57;;
5199;SDS011;2619;47.868;11.892;2022-07-18T00:12:40;7.43;;;6.80;;
5199;SDS011;2619;47.868;11.892;2022-07-18T00:15:06;8.37;;;6.93;;
5199;SDS011;2619;47.868;11.892;2022-07-18T00:17:32;7.00;;;6.40;;
5199;SDS011;2619;47.868;11.892;2022-07-18T00:19:58;7.30;;;6.60;;
5199;SDS011;2619;47.868;11.892;2022-07-18T00:22:23;7.40;;;6.80;;
5199;SDS011;2619;47.868;11.892;2022-07-18T00:24:49;6.37;;;5.77;;
5199;SDS011;2619;47.868;11.892;2022-07-18T00:27:14;7.17;;;6.50;;
5199;SDS011;2619;47.868;11.892;2022-07-18T00:29:40;10.07;;;6.00;;
5199;SDS011;2619;47.868;11.892;2022-07-18T00:32:06;6.60;;;5.97;;
5199;SDS011;2619;47.868;11.892;2022-07-18T00:34:33;6.43;;;5.83;;
5199;SDS011;2619;47.868;11.892;2022-07-18T00:36:59;7.43;;;6.70;;
5199;SDS011;2619;47.868;11.892;2022-07-18T00:39:25;7.70;;;6.90;;
5199;SDS011;2619;47.868;11.892;2022-07-18T00:41:51;7.30;;;6.60;;
5199;SDS011;2619;47.868;11.892;2022-07-18T00:44:17;8.00;;;7.20;;
5199;SDS011;2619;47.868;11.892;2022-07-18T00:46:44;8.27;;;7.47;;
5199;SDS011;2619;47.868;11.892;2022-07-18T00:49:09;8.80;;;8.00;;
5199;SDS011;2619;47.868;11.892;2022-07-18T00:51:35;8.10;;;7.40;;
5199;SDS011;2619;47.868;11.892;2022-07-18T00:54:03;7.63;;;6.83;;
5199;SDS011;2619;47.868;11.892;2022-07-18T00:56:29;7.77;;;6.87;;
5199;SDS011;2619;47.868;11.892;2022-07-18T00:58:55;8.73;;;7.83;;
5199;SDS011;2619;47.868;11.892;2022-07-18T01:01:21;10.10;;;7.60;;
5199;SDS011;2619;47.868;11.892;2022-07-18T01:04:05;7.17;;;6.53;;
5199;SDS011;2619;47.868;11.892;2022-07-18T01:06:31;7.60;;;6.90;;
5199;SDS011;2619;47.868;11.892;2022-07-18T01:08:57;7.70;;;7.00;;
5199;SDS011;2619;47.868;11.892;2022-07-18T01:11:23;8.33;;;7.30;;
5199;SDS011;2619;47.868;11.892;2022-07-18T01:13:49;8.67;;;7.87;;
5199;SDS011;2619;47.868;11.892;2022-07-18T01:16:16;8.70;;;7.90;;
5199;SDS011;2619;47.868;11.892;2022-07-18T01:18:49;7.93;;;7.23;;
5199;SDS011;2619;47.868;11.892;2022-07-18T01:21:16;8.90;;;8.00;;
5199;SDS011;2619;47.868;11.892;2022-07-18T01:23:42;7.57;;;6.93;;
5199;SDS011;2619;47.868;11.892;2022-07-18T01:26:08;7.17;;;6.57;;
5199;SDS011;2619;47.868;11.892;2022-07-18T01:28:34;8.70;;;7.80;;
5199;SDS011;2619;47.868;11.892;2022-07-18T01:31:01;7.57;;;6.53;;
5199;SDS011;2619;47.868;11.892;2022-07-18T01:33:26;7.87;;;7.17;;
5199;SDS011;2619;47.868;11.892;2022-07-18T01:35:52;7.37;;;6.77;;
5199;SDS011;2619;47.868;11.892;2022-07-18T01:38:17;7.13;;;6.47;;
5199;SDS011;2619;47.868;11.892;2022-07-18T01:40:44;7.73;;;7.03;;
5199;SDS011;2619;47.868;11.892;2022-07-18T01:43:10;7.97;;;6.77;;
5199;SDS011;2619;47.868;11.892;2022-07-18T01:45:36;8.80;;;7.90;;
5199;SDS011;2619;47.868;11.892;2022-07-18T01:48:02;8.07;;;7.27;;
5199;SDS011;2619;47.868;11.892;2022-07-18T01:50:28;7.80;;;7.10;;
5199;SDS011;2619;47.868;11.892;2022-07-18T01:52:53;8.27;;;7.47;;
5199;SDS011;2619;47.868;11.892;2022-07-18T01:55:19;7.37;;;6.67;;
5199;SDS011;2619;47.868;11.892;2022-07-18T01:57:45;7.60;;;6.80;;
5199;SDS011;2619;47.868;11.892;2022-07-18T02:00:11;7.63;;;6.93;;
5199;SDS011;2619;47.868;11.892;2022-07-18T02:02:37;8.50;;;7.70;;
5199;SDS011;2619;47.868;11.892;2022-07-18T02:05:04;7.70;;;7.00;;
5199;SDS011;2619;47.868;11.892;2022-07-18T02:07:34;6.70;;;6.10;;
5199;SDS011;2619;47.868;11.892;2022-07-18T02:10:13;7.57;;;6.80;;
5199;SDS011;2619;47.868;11.892;2022-07-18T02:12:44;7.40;;;6.70;;
5199;SDS011;2619;47.868;11.892;2022-07-18T02:15:11;7.93;;;7.13;;
5199;SDS011;2619;47.868;11.892;2022-07-18T02:17:38;7.73;;;7.00;;
5199;SDS011;2619;47.868;11.892;2022-07-18T02:20:04;8.27;;;7.57;;
5199;SDS011;2619;47.868;11.892;2022-07-18T02:22:31;8.57;;;7.77;;
5199;SDS011;2619;47.868;11.892;2022-07-18T02:24:57;8.83;;;7.93;;
5199;SDS011;2619;47.868;11.892;2022-07-18T02:27:23;7.73;;;7.00;;
5199;SDS011;2619;47.868;11.892;2022-07-18T02:29:49;8.10;;;7.40;;
5199;SDS011;2619;47.868;11.892;2022-07-18T02:32:14;7.83;;;6.97;;
5199;SDS011;2619;47.868;11.892;2022-07-18T02:34:40;8.00;;;7.27;;
5199;SDS011;2619;47.868;11.892;2022-07-18T02:37:06;7.70;;;7.00;;
5199;SDS011;2619;47.868;11.892;2022-07-18T02:39:32;7.83;;;7.07;;
5199;SDS011;2619;47.868;11.892;2022-07-18T02:41:59;7.87;;;7.10;;
5199;SDS011;2619;47.868;11.892;2022-07-18T02:44:25;7.10;;;6.50;;
5199;SDS011;2619;47.868;11.892;2022-07-18T02:46:51;8.47;;;7.33;;
5199;SDS011;2619;47.868;11.892;2022-07-18T02:49:16;9.97;;;7.80;;
5199;SDS011;2619;47.868;11.892;2022-07-18T02:51:55;8.53;;;7.60;;
5199;SDS011;2619;47.868;11.892;2022-07-18T02:54:22;8.13;;;7.43;;
5199;SDS011;2619;47.868;11.892;2022-07-18T02:56:48;8.30;;;7.60;;
5199;SDS011;2619;47.868;11.892;2022-07-18T02:59:14;8.33;;;7.53;;
5199;SDS011;2619;47.868;11.892;2022-07-18T03:01:40;8.77;;;7.97;;
5199;SDS011;2619;47.868;11.892;2022-07-18T03:04:06;9.27;;;8.40;;
5199;SDS011;2619;47.868;11.892;2022-07-18T03:06:31;8.60;;;7.80;;
5199;SDS011;2619;47.868;11.892;2022-07-18T03:08:57;9.50;;;8.07;;
5199;SDS011;2619;47.868;11.892;2022-07-18T03:11:22;8.47;;;7.57;;
5199;SDS011;2619;47.868;11.892;2022-07-18T03:13:48;9.13;;;8.23;;
5199;SDS011;2619;47.868;11.892;2022-07-18T03:16:13;9.10;;;8.23;;
5199;SDS011;2619;47.868;11.892;2022-07-18T03:18:39;8.90;;;8.10;;
5199;SDS011;2619;47.868;11.892;2022-07-18T03:21:05;9.53;;;8.73;;
5199;SDS011;2619;47.868;11.892;2022-07-18T03:23:30;9.83;;;8.63;;
5199;SDS011;2619;47.868;11.892;2022-07-18T03:25:56;9.20;;;8.30;;
5199;SDS011;2619;47.868;11.892;2022-07-18T03:28:22;8.20;;;7.50;;
5199;SDS011;2619;47.868;11.892;2022-07-18T03:30:47;9.13;;;8.30;;
5199;SDS011;2619;47.868;11.892;2022-07-18T03:33:13;9.37;;;8.57;;
5199;SDS011;2619;47.868;11.892;2022-07-18T03:35:38;9.57;;;8.57;;
5199;SDS011;2619;47.868;11.892;2022-07-18T03:38:04;9.33;;;8.50;;
5199;SDS011;2619;47.868;11.892;2022-07-18T03:40:30;9.57;;;8.20;;
5199;SDS011;2619;47.868;11.892;2022-07-18T03:42:56;10.63;;;9.00;;
5199;SDS011;2619;47.868;11.892;2022-07-18T03:45:21;10.57;;;9.50;;
5199;SDS011;2619;47.868;11.892;2022-07-18T03:47:47;10.23;;;9.20;;
5199;SDS011;2619;47.868;11.892;2022-07-18T03:50:12;9.90;;;9.00;;
5199;SDS011;2619;47.868;11.892;2022-07-18T03:52:38;10.77;;;9.67;;
5199;SDS011;2619;47.868;11.892;2022-07-18T03:55:04;11.30;;;9.40;;
5199;SDS011;2619;47.868;11.892;2022-07-18T03:57:30;10.33;;;9.33;;
5199;SDS011;2619;47.868;11.892;2022-07-18T03:59:55;10.13;;;9.07;;
5199;SDS011;2619;47.868;11.892;2022-07-18T04:02:21;10.80;;;9.70;;
5199;SDS011;2619;47.868;11.892;2022-07-18T04:04:46;10.03;;;9.10;;
5199;SDS011;2619;47.868;11.892;2022-07-18T04:07:12;10.70;;;9.60;;
5199;SDS011;2619;47.868;11.892;2022-07-18T04:09:37;10.40;;;9.40;;
5199;SDS011;2619;47.868;11.892;2022-07-18T04:12:03;10.73;;;9.63;;
5199;SDS011;2619;47.868;11.892;2022-07-18T04:14:29;11.33;;;10.23;;
5199;SDS011;2619;47.868;11.892;2022-07-18T04:16:54;9.83;;;8.83;;
5199;SDS011;2619;47.868;11.892;2022-07-18T04:19:20;10.80;;;8.93;;
5199;SDS011;2619;47.868;11.892;2022-07-18T04:21:48;10.60;;;9.10;;
5199;SDS011;2619;47.868;11.892;2022-07-18T04:24:13;8.13;;;7.33;;
5199;SDS011;2619;47.868;11.892;2022-07-18T04:26:39;8.40;;;7.60;;
5199;SDS011;2619;47.868;11.892;2022-07-18T04:29:05;8.70;;;7.90;;
5199;SDS011;2619;47.868;11.892;2022-07-18T04:31:30;9.27;;;8.47;;
5199;SDS011;2619;47.868;11.892;2022-07-18T04:33:56;7.57;;;6.87;;
5199;SDS011;2619;47.868;11.892;2022-07-18T04:36:22;5.87;;;5.27;;
5199;SDS011;2619;47.868;11.892;2022-07-18T04:38:47;8.27;;;7.47;;
5199;SDS011;2619;47.868;11.892;2022-07-18T04:41:13;9.70;;;7.80;;
5199;SDS011;2619;47.868;11.892;2022-07-18T04:43:39;8.57;;;7.10;;
5199;SDS011;2619;47.868;11.892;2022-07-18T04:46:05;7.13;;;5.20;;
5199;SDS011;2619;47.868;11.892;2022-07-18T04:48:31;5.53;;;4.93;;
5199;SDS011;2619;47.868;11.892;2022-07-18T04:50:56;4.70;;;4.30;;
5199;SDS011;2619;47.868;11.892;2022-07-18T04:53:22;5.60;;;5.03;;
5199;SDS011;2619;47.868;11.892;2022-07-18T04:55:48;8.70;;;4.50;;
5199;SDS011;2619;47.868;11.892;2022-07-18T04:58:13;4.87;;;4.37;;
5199;SDS011;2619;47.868;11.892;2022-07-18T05:00:39;7.90;;;7.30;;
5199;SDS011;2619;47.868;11.892;2022-07-18T05:03:05;5.80;;;5.30;;
5199;SDS011;2619;47.868;11.892;2022-07-18T05:05:30;3.73;;;3.20;;
5199;SDS011;2619;47.868;11.892;2022-07-18T05:07:56;4.60;;;3.17;;
5199;SDS011;2619;47.868;11.892;2022-07-18T05:10:22;5.57;;;3.87;;
5199;SDS011;2619;47.868;11.892;2022-07-18T05:12:49;3.73;;;3.43;;
5199;SDS011;2619;47.868;11.892;2022-07-18T05:15:17;3.40;;;3.10;;
5199;SDS011;2619;47.868;11.892;2022-07-18T05:17:44;4.83;;;3.57;;
5199;SDS011;2619;47.868;11.892;2022-07-18T05:20:11;5.40;;;3.50;;
5199;SDS011;2619;47.868;11.892;2022-07-18T05:22:38;4.30;;;3.50;;
5199;SDS011;2619;47.868;11.892;2022-07-18T05:25:05;4.33;;;3.77;;
5199;SDS011;2619;47.868;11.892;2022-07-18T05:27:32;5.27;;;3.70;;
5199;SDS011;2619;47.868;11.892;2022-07-18T05:29:58;6.80;;;4.40;;
5199;SDS011;2619;47.868;11.892;2022-07-18T05:32:25;4.20;;;3.43;;
5199;SDS011;2619;47.868;11.892;2022-07-18T05:34:51;3.70;;;3.40;;
5199;SDS011;2619;47.868;11.892;2022-07-18T05:37:17;3.93;;;3.53;;
5199;SDS011;2619;47.868;11.892;2022-07-18T05:39:42;4.63;;;3.80;;
5199;SDS011;2619;47.868;11.892;2022-07-18T05:42:08;5.23;;;3.90;;
5199;SDS011;2619;47.868;11.892;2022-07-18T05:44:34;5.53;;;3.53;;
5199;SDS011;2619;47.868;11.892;2022-07-18T05:46:59;4.00;;;3.60;;
5199;SDS011;2619;47.868;11.892;2022-07-18T05:49:25;3.80;;;3.40;;
5199;SDS011;2619;47.868;11.892;2022-07-18T05:51:50;3.77;;;3.43;;
5199;SDS011;2619;47.868;11.892;2022-07-18T05:54:16;3.40;;;3.10;;
5199;SDS011;2619;47.868;11.892;2022-07-18T05:56:51;3.63;;;3.13;;
5199;SDS011;2619;47.868;11.892;2022-07-18T05:59:18;4.40;;;4.00;;
5199;SDS011;2619;47.868;11.892;2022-07-18T06:01:45;29.00;;;5.90;;
5199;SDS011;2619;47.868;11.892;2022-07-18T06:04:10;16.60;;;4.73;;
5199;SDS011;2619;47.868;11.892;2022-07-18T06:06:36;7.23;;;3.90;;
5199;SDS011;2619;47.868;11.892;2022-07-18T06:09:02;4.63;;;3.97;;
5199;SDS011;2619;47.868;11.892;2022-07-18T06:11:28;5.73;;;3.30;;
5199;SDS011;2619;47.868;11.892;2022-07-18T06:13:54;4.57;;;3.30;;
5199;SDS011;2619;47.868;11.892;2022-07-18T06:16:19;5.13;;;3.40;;
5199;SDS011;2619;47.868;11.892;2022-07-18T06:18:45;3.70;;;3.33;;
5199;SDS011;2619;47.868;11.892;2022-07-18T06:21:11;3.90;;;3.57;;
5199;SDS011;2619;47.868;11.892;2022-07-18T06:23:37;4.47;;;3.40;;
5199;SDS011;2619;47.868;11.892;2022-07-18T06:26:03;4.63;;;3.80;;
5199;SDS011;2619;47.868;11.892;2022-07-18T06:28:29;4.17;;;3.40;;
5199;SDS011;2619;47.868;11.892;2022-07-18T06:30:55;5.07;;;3.70;;
5199;SDS011;2619;47.868;11.892;2022-07-18T06:33:20;4.20;;;3.80;;
5199;SDS011;2619;47.868;11.892;2022-07-18T06:35:46;4.47;;;3.60;;
5199;SDS011;2619;47.868;11.892;2022-07-18T06:38:12;4.87;;;4.17;;
5199;SDS011;2619;47.868;11.892;2022-07-18T06:40:38;4.50;;;3.70;;
5199;SDS011;2619;47.868;11.892;2022-07-18T06:43:04;5.10;;;3.43;;
5199;SDS011;2619;47.868;11.892;2022-07-18T06:45:31;6.27;;;3.63;;
5199;SDS011;2619;47.868;11.892;2022-07-18T06:47:57;4.67;;;4.27;;
5199;SDS011;2619;47.868;11.892;2022-07-18T06:50:22;4.60;;;3.90;;
5199;SDS011;2619;47.868;11.892;2022-07-18T06:52:48;4.00;;;3.60;;
5199;SDS011;2619;47.868;11.892;2022-07-18T06:55:14;4.80;;;3.67;;
5199;SDS011;2619;47.868;11.892;2022-07-18T06:57:40;4.83;;;4.23;;
5199;SDS011;2619;47.868;11.892;2022-07-18T07:00:07;4.27;;;3.70;;
5199;SDS011;2619;47.868;11.892;2022-07-18T07:02:34;4.20;;;3.80;;
5199;SDS011;2619;47.868;11.892;2022-07-18T07:05:05;4.07;;;3.77;;
5199;SDS011;2619;47.868;11.892;2022-07-18T07:07:30;4.60;;;4.20;;
5199;SDS011;2619;47.868;11.892;2022-07-18T07:09:56;4.67;;;4.27;;
5199;SDS011;2619;47.868;11.892;2022-07-18T07:12:22;4.47;;;4.07;;
5199;SDS011;2619;47.868;11.892;2022-07-18T07:14:47;4.93;;;4.30;;
5199;SDS011;2619;47.868;11.892;2022-07-18T07:17:13;4.73;;;4.23;;
5199;SDS011;2619;47.868;11.892;2022-07-18T07:19:38;5.30;;;4.27;;
5199;SDS011;2619;47.868;11.892;2022-07-18T07:22:04;5.03;;;4.50;;
5199;SDS011;2619;47.868;11.892;2022-07-18T07:24:29;4.47;;;4.07;;
5199;SDS011;2619;47.868;11.892;2022-07-18T07:26:55;5.60;;;5.10;;
5199;SDS011;2619;47.868;11.892;2022-07-18T07:29:20;7.07;;;4.43;;
5199;SDS011;2619;47.868;11.892;2022-07-18T07:31:46;5.87;;;4.10;;
5199;SDS011;2619;47.868;11.892;2022-07-18T07:34:12;5.03;;;4.03;;
5199;SDS011;2619;47.868;11.892;2022-07-18T07:36:37;5.67;;;4.40;;
5199;SDS011;2619;47.868;11.892;2022-07-18T07:39:03;4.67;;;4.10;;
5199;SDS011;2619;47.868;11.892;2022-07-18T07:41:28;4.43;;;3.87;;
5199;SDS011;2619;47.868;11.892;2022-07-18T07:43:54;5.43;;;3.87;;
5199;SDS011;2619;47.868;11.892;2022-07-18T07:46:20;5.33;;;4.03;;
5199;SDS011;2619;47.868;11.892;2022-07-18T07:48:45;3.90;;;3.50;;
5199;SDS011;2619;47.868;11.892;2022-07-18T07:51:13;4.50;;;3.90;;
5199;SDS011;2619;47.868;11.892;2022-07-18T07:53:38;4.93;;;4.50;;
5199;SDS011;2619;47.868;11.892;2022-07-18T07:56:04;4.17;;;3.87;;
5199;SDS011;2619;47.868;11.892;2022-07-18T07:58:30;3.77;;;3.33;;
5199;SDS011;2619;47.868;11.892;2022-07-18T08:00:56;4.40;;;3.70;;
5199;SDS011;2619;47.868;11.892;2022-07-18T08:03:22;4.73;;;3.50;;
5199;SDS011;2619;47.868;11.892;2022-07-18T08:05:48;4.20;;;3.37;;
5199;SDS011;2619;47.868;11.892;2022-07-18T08:08:15;6.93;;;3.90;;
5199;SDS011;2619;47.868;11.892;2022-07-18T08:10:41;4.47;;;3.50;;
5199;SDS011;2619;47.868;11.892;2022-07-18T08:13:07;3.80;;;3.40;;
5199;SDS011;2619;47.868;11.892;2022-07-18T08:15:34;4.00;;;3.60;;
5199;SDS011;2619;47.868;11.892;2022-07-18T08:18:00;4.10;;;3.20;;
5199;SDS011;2619;47.868;11.892;2022-07-18T08:20:26;3.53;;;3.23;;
5199;SDS011;2619;47.868;11.892;2022-07-18T08:23:02;9.10;;;3.47;;
5199;SDS011;2619;47.868;11.892;2022-07-18T08:25:33;5.10;;;3.67;;
5199;SDS011;2619;47.868;11.892;2022-07-18T08:28:01;5.53;;;3.70;;
5199;SDS011;2619;47.868;11.892;2022-07-18T08:30:27;4.73;;;4.20;;
5199;SDS011;2619;47.868;11.892;2022-07-18T08:32:54;3.97;;;3.30;;
5199;SDS011;2619;47.868;11.892;2022-07-18T08:35:19;5.07;;;3.60;;
5199;SDS011;2619;47.868;11.892;2022-07-18T08:37:45;3.90;;;3.40;;
5199;SDS011;2619;47.868;11.892;2022-07-18T08:40:11;5.03;;;3.40;;
5199;SDS011;2619;47.868;11.892;2022-07-18T08:42:37;4.67;;;3.70;;
5199;SDS011;2619;47.868;11.892;2022-07-18T08:45:04;3.83;;;2.93;;
5199;SDS011;2619;47.868;11.892;2022-07-18T08:47:30;6.10;;;3.87;;
5199;SDS011;2619;47.868;11.892;2022-07-18T08:49:56;5.03;;;3.03;;
5199;SDS011;2619;47.868;11.892;2022-07-18T08:52:23;4.53;;;3.30;;
5199;SDS011;2619;47.868;11.892;2022-07-18T08:54:49;5.83;;;3.03;;
5199;SDS011;2619;47.868;11.892;2022-07-18T08:57:15;4.17;;;3.77;;
5199;SDS011;2619;47.868;11.892;2022-07-18T08:59:41;4.20;;;3.30;;
5199;SDS011;2619;47.868;11.892;2022-07-18T09:02:07;4.23;;;3.70;;
5199;SDS011;2619;47.868;11.892;2022-07-18T09:04:40;4.23;;;3.40;;
5199;SDS011;2619;47.868;11.892;2022-07-18T09:07:08;3.17;;;2.87;;
5199;SDS011;2619;47.868;11.892;2022-07-18T09:09:35;3.60;;;3.30;;
5199;SDS011;2619;47.868;11.892;2022-07-18T09:14:36;4.27;;;3.63;;
5199;SDS011;2619;47.868;11.892;2022-07-18T09:22:37;4.40;;;4.00;;
5199;SDS011;2619;47.868;11.892;2022-07-18T09:25:05;5.00;;;3.90;;
5199;SDS011;2619;47.868;11.892;2022-07-18T09:32:48;7.23;;;4.23;;
5199;SDS011;2619;47.868;11.892;2022-07-18T09:35:25;5.10;;;4.70;;
5199;SDS011;2619;47.868;11.892;2022-07-18T09:40:28;4.67;;;4.27;;
5199;SDS011;2619;47.868;11.892;2022-07-18T09:42:59;4.03;;;3.63;;
5199;SDS011;2619;47.868;11.892;2022-07-18T09:48:04;4.70;;;3.70;;
5199;SDS011;2619;47.868;11.892;2022-07-18T09:55:35;4.53;;;3.93;;
5199;SDS011;2619;47.868;11.892;2022-07-18T09:58:05;7.30;;;4.60;;
5199;SDS011;2619;47.868;11.892;2022-07-18T10:00:32;3.90;;;3.50;;
5199;SDS011;2619;47.868;11.892;2022-07-18T10:03:03;3.83;;;3.53;;
5199;SDS011;2619;47.868;11.892;2022-07-18T10:05:31;3.80;;;3.30;;
5199;SDS011;2619;47.868;11.892;2022-07-18T10:07:59;3.60;;;3.20;;
5199;SDS011;2619;47.868;11.892;2022-07-18T10:10:27;3.80;;;3.03;;
5199;SDS011;2619;47.868;11.892;2022-07-18T10:12:54;3.20;;;2.70;;
5199;SDS011;2619;47.868;11.892;2022-07-18T10:15:21;3.80;;;3.40;;
5199;SDS011;2619;47.868;11.892;2022-07-18T10:17:48;3.83;;;3.43;;
5199;SDS011;2619;47.868;11.892;2022-07-18T10:20:14;4.37;;;3.23;;
5199;SDS011;2619;47.868;11.892;2022-07-18T10:22:40;3.73;;;3.17;;
5199;SDS011;2619;47.868;11.892;2022-07-18T10:25:07;3.87;;;3.30;;
5199;SDS011;2619;47.868;11.892;2022-07-18T10:30:15;4.47;;;2.83;;
5199;SDS011;2619;47.868;11.892;2022-07-18T10:32:40;6.30;;;2.90;;
5199;SDS011;2619;47.868;11.892;2022-07-18T10:35:07;3.77;;;2.80;;
5199;SDS011;2619;47.868;11.892;2022-07-18T10:37:36;3.23;;;2.60;;
5199;SDS011;2619;47.868;11.892;2022-07-18T10:40:23;3.47;;;2.53;;
5199;SDS011;2619;47.868;11.892;2022-07-18T10:45:53;3.73;;;2.50;;
5199;SDS011;2619;47.868;11.892;2022-07-18T10:51:19;3.40;;;2.37;;
5199;SDS011;2619;47.868;11.892;2022-07-18T10:58:56;3.40;;;2.20;;
5199;SDS011;2619;47.868;11.892;2022-07-18T11:01:23;2.60;;;2.17;;
5199;SDS011;2619;47.868;11.892;2022-07-18T11:03:49;4.70;;;2.00;;
5199;SDS011;2619;47.868;11.892;2022-07-18T11:06:15;3.50;;;1.53;;
5199;SDS011;2619;47.868;11.892;2022-07-18T11:08:41;2.43;;;2.03;;
5199;SDS011;2619;47.868;11.892;2022-07-18T11:11:08;2.97;;;1.73;;
5199;SDS011;2619;47.868;11.892;2022-07-18T11:13:35;2.50;;;1.80;;
5199;SDS011;2619;47.868;11.892;2022-07-18T11:16:13;3.67;;;2.07;;
5199;SDS011;2619;47.868;11.892;2022-07-18T11:21:26;2.10;;;1.70;;
5199;SDS011;2619;47.868;11.892;2022-07-18T11:24:06;3.93;;;1.70;;
5199;SDS011;2619;47.868;11.892;2022-07-18T11:26:38;2.10;;;1.50;;
5199;SDS011;2619;47.868;11.892;2022-07-18T11:29:09;2.87;;;2.07;;
5199;SDS011;2619;47.868;11.892;2022-07-18T11:31:47;3.20;;;2.33;;
5199;SDS011;2619;47.868;11.892;2022-07-18T11:34:20;2.67;;;1.90;;
5199;SDS011;2619;47.868;11.892;2022-07-18T11:36:47;2.43;;;1.63;;
5199;SDS011;2619;47.868;11.892;2022-07-18T11:39:14;2.87;;;2.47;;
5199;SDS011;2619;47.868;11.892;2022-07-18T11:41:51;3.40;;;2.03;;
5199;SDS011;2619;47.868;11.892;2022-07-18T11:44:18;3.47;;;1.50;;
5199;SDS011;2619;47.868;11.892;2022-07-18T11:47:00;2.50;;;1.90;;
5199;SDS011;2619;47.868;11.892;2022-07-18T11:49:27;2.40;;;1.90;;
5199;SDS011;2619;47.868;11.892;2022-07-18T11:51:52;3.10;;;2.10;;
5199;SDS011;2619;47.868;11.892;2022-07-18T11:54:22;4.40;;;1.80;;
5199;SDS011;2619;47.868;11.892;2022-07-18T11:56:49;2.57;;;1.90;;
5199;SDS011;2619;47.868;11.892;2022-07-18T11:59:17;2.67;;;1.90;;
5199;SDS011;2619;47.868;11.892;2022-07-18T12:01:43;3.13;;;1.87;;
5199;SDS011;2619;47.868;11.892;2022-07-18T12:04:22;2.33;;;1.70;;
5199;SDS011;2619;47.868;11.892;2022-07-18T12:09:48;4.53;;;1.90;;
5199;SDS011;2619;47.868;11.892;2022-07-18T12:12:15;2.57;;;2.23;;
5199;SDS011;2619;47.868;11.892;2022-07-18T12:14:42;3.20;;;1.80;;
5199;SDS011;2619;47.868;11.892;2022-07-18T12:17:17;2.67;;;2.03;;
5199;SDS011;2619;47.868;11.892;2022-07-18T12:19:42;3.30;;;1.93;;
5199;SDS011;2619;47.868;11.892;2022-07-18T12:22:09;2.40;;;1.80;;
5199;SDS011;2619;47.868;11.892;2022-07-18T12:24:40;2.80;;;1.93;;
5199;SDS011;2619;47.868;11.892;2022-07-18T12:27:16;2.50;;;1.60;;
5199;SDS011;2619;47.868;11.892;2022-07-18T12:29:53;2.90;;;1.83;;
5199;SDS011;2619;47.868;11.892;2022-07-18T12:32:29;2.40;;;1.80;;
5199;SDS011;2619;47.868;11.892;2022-07-18T12:35:07;2.63;;;1.90;;
5199;SDS011;2619;47.868;11.892;2022-07-18T12:37:38;3.50;;;2.13;;
5199;SDS011;2619;47.868;11.892;2022-07-18T12:42:33;2.53;;;1.70;;
5199;SDS011;2619;47.868;11.892;2022-07-18T12:45:03;2.37;;;1.33;;
5199;SDS011;2619;47.868;11.892;2022-07-18T12:47:30;4.43;;;1.47;;
5199;SDS011;2619;47.868;11.892;2022-07-18T12:49:56;2.13;;;1.47;;
5199;SDS011;2619;47.868;11.892;2022-07-18T12:52:22;4.53;;;1.80;;
5199;SDS011;2619;47.868;11.892;2022-07-18T12:54:48;4.13;;;1.63;;
5199;SDS011;2619;47.868;11.892;2022-07-18T12:57:14;2.40;;;1.40;;
5199;SDS011;2619;47.868;11.892;2022-07-18T12:59:40;2.57;;;1.70;;
5199;SDS011;2619;47.868;11.892;2022-07-18T13:02:06;2.00;;;1.53;;
5199;SDS011;2619;47.868;11.892;2022-07-18T13:04:32;2.63;;;2.07;;
5199;SDS011;2619;47.868;11.892;2022-07-18T13:06:57;1.90;;;1.70;;
5199;SDS011;2619;47.868;11.892;2022-07-18T13:09:23;2.40;;;1.60;;
5199;SDS011;2619;47.868;11.892;2022-07-18T13:11:49;3.37;;;2.03;;
5199;SDS011;2619;47.868;11.892;2022-07-18T13:14:14;3.10;;;1.87;;
5199;SDS011;2619;47.868;11.892;2022-07-18T13:16:41;3.47;;;2.07;;
5199;SDS011;2619;47.868;11.892;2022-07-18T13:19:10;2.50;;;2.30;;
5199;SDS011;2619;47.868;11.892;2022-07-18T13:21:36;2.50;;;1.53;;
5199;SDS011;2619;47.868;11.892;2022-07-18T13:24:02;3.07;;;1.70;;
5199;SDS011;2619;47.868;11.892;2022-07-18T13:26:28;3.60;;;1.70;;
5199;SDS011;2619;47.868;11.892;2022-07-18T13:28:54;2.50;;;1.93;;
5199;SDS011;2619;47.868;11.892;2022-07-18T13:31:19;2.17;;;1.83;;
5199;SDS011;2619;47.868;11.892;2022-07-18T13:33:45;4.13;;;1.70;;
5199;SDS011;2619;47.868;11.892;2022-07-18T13:36:12;1.80;;;1.40;;
5199;SDS011;2619;47.868;11.892;2022-07-18T13:38:39;4.20;;;1.73;;
5199;SDS011;2619;47.868;11.892;2022-07-18T13:41:04;2.83;;;1.57;;
5199;SDS011;2619;47.868;11.892;2022-07-18T13:43:30;1.90;;;1.53;;
5199;SDS011;2619;47.868;11.892;2022-07-18T13:45:56;6.03;;;1.80;;
5199;SDS011;2619;47.868;11.892;2022-07-18T13:48:22;2.20;;;1.50;;
5199;SDS011;2619;47.868;11.892;2022-07-18T13:50:47;3.90;;;1.60;;
5199;SDS011;2619;47.868;11.892;2022-07-18T13:53:13;4.53;;;1.93;;
5199;SDS011;2619;47.868;11.892;2022-07-18T13:55:39;3.40;;;1.60;;
5199;SDS011;2619;47.868;11.892;2022-07-18T13:58:04;2.37;;;1.67;;
5199;SDS011;2619;47.868;11.892;2022-07-18T14:00:30;2.27;;;1.90;;
5199;SDS011;2619;47.868;11.892;2022-07-18T14:02:56;2.40;;;1.83;;
5199;SDS011;2619;47.868;11.892;2022-07-18T14:05:21;2.20;;;1.77;;
5199;SDS011;2619;47.868;11.892;2022-07-18T14:07:47;2.90;;;1.70;;
5199;SDS011;2619;47.868;11.892;2022-07-18T14:10:14;2.00;;;1.70;;
5199;SDS011;2619;47.868;11.892;2022-07-18T14:12:40;2.53;;;1.90;;
5199;SDS011;2619;47.868;11.892;2022-07-18T14:15:07;3.80;;;2.00;;
5199;SDS011;2619;47.868;11.892;2022-07-18T14:17:33;2.30;;;1.63;;
5199;SDS011;2619;47.868;11.892;2022-07-18T14:19:59;3.00;;;1.70;;
5199;SDS011;2619;47.868;11.892;2022-07-18T14:22:25;2.97;;;1.60;;
5199;SDS011;2619;47.868;11.892;2022-07-18T14:24:50;4.03;;;1.63;;
5199;SDS011;2619;47.868;11.892;2022-07-18T14:27:16;2.37;;;1.83;;
5199;SDS011;2619;47.868;11.892;2022-07-18T14:29:41;1.90;;;1.43;;
5199;SDS011;2619;47.868;11.892;2022-07-18T14:32:07;2.40;;;1.93;;
5199;SDS011;2619;47.868;11.892;2022-07-18T14:34:33;2.63;;;1.80;;
5199;SDS011;2619;47.868;11.892;2022-07-18T14:36:59;2.20;;;1.70;;
5199;SDS011;2619;47.868;11.892;2022-07-18T14:39:24;2.37;;;1.27;;
5199;SDS011;2619;47.868;11.892;2022-07-18T14:41:50;2.80;;;1.63;;
5199;SDS011;2619;47.868;11.892;2022-07-18T14:44:16;2.37;;;1.73;;
5199;SDS011;2619;47.868;11.892;2022-07-18T14:46:41;3.27;;;2.00;;
5199;SDS011;2619;47.868;11.892;2022-07-18T14:49:07;2.43;;;1.67;;
5199;SDS011;2619;47.868;11.892;2022-07-18T14:51:33;2.53;;;2.03;;
5199;SDS011;2619;47.868;11.892;2022-07-18T14:53:58;2.30;;;1.83;;
5199;SDS011;2619;47.868;11.892;2022-07-18T14:56:24;2.93;;;1.80;;
5199;SDS011;2619;47.868;11.892;2022-07-18T14:58:50;3.77;;;3.40;;
5199;SDS011;2619;47.868;11.892;2022-07-18T15:01:16;2.77;;;2.03;;
5199;SDS011;2619;47.868;11.892;2022-07-18T15:03:44;2.07;;;1.80;;
5199;SDS011;2619;47.868;11.892;2022-07-18T15:06:10;2.60;;;1.50;;
5199;SDS011;2619;47.868;11.892;2022-07-18T15:08:36;3.23;;;1.67;;
5199;SDS011;2619;47.868;11.892;2022-07-18T15:11:02;1.90;;;1.60;;
5199;SDS011;2619;47.868;11.892;2022-07-18T15:13:27;3.23;;;2.40;;
5199;SDS011;2619;47.868;11.892;2022-07-18T15:15:53;2.83;;;1.90;;
5199;SDS011;2619;47.868;11.892;2022-07-18T15:18:18;3.40;;;1.67;;
5199;SDS011;2619;47.868;11.892;2022-07-18T15:20:44;2.80;;;1.90;;
5199;SDS011;2619;47.868;11.892;2022-07-18T15:23:10;2.50;;;1.90;;
5199;SDS011;2619;47.868;11.892;2022-07-18T15:25:36;3.90;;;1.50;;
5199;SDS011;2619;47.868;11.892;2022-07-18T15:28:02;4.30;;;2.10;;
5199;SDS011;2619;47.868;11.892;2022-07-18T15:30:27;2.97;;;2.00;;
5199;SDS011;2619;47.868;11.892;2022-07-18T15:32:53;3.93;;;1.87;;
5199;SDS011;2619;47.868;11.892;2022-07-18T15:35:19;2.20;;;1.70;;
5199;SDS011;2619;47.868;11.892;2022-07-18T15:37:44;4.53;;;1.90;;
5199;SDS011;2619;47.868;11.892;2022-07-18T15:40:10;3.60;;;1.57;;
5199;SDS011;2619;47.868;11.892;2022-07-18T15:42:36;3.27;;;1.63;;